Flight Track Log - Related Links

Times and Time Zones

All times are in EDT time to prevent confusion due to time zone crossing. See the KAP927 flight status page for this flight to view local times or setup timezone preferences in your user account.

Time Position Orientation Groundspeed Altitude Reporting Facility
EDT Latitude Longitude Course Direction KTS MPH feet Rate Location/Type
02:44PM 42.7167 -73.8503 228° Southwest 117 135 1,500  Level Boston Center
02:45PM 42.7183 -73.8956 273° West 121 139 2,100 545 Climbing Boston Center
02:46PM 42.7344 -73.9297 303° West 130 150 2,600 443 Climbing Boston Center
02:47PM 42.7722 -73.9250 North 133 153 3,000 496 Climbing Boston Center
02:48PM 42.8097 -73.9258 359° North 133 153 3,600 522 Climbing Boston Center
02:49PM 42.8431 -73.9267 359° North 136 157 4,000 417 Climbing Boston Center
02:50PM 42.8806 -73.9275 359° North 138 159 4,400 365 Climbing Boston Center
02:51PM 42.9181 -73.9286 359° North 140 161 4,700 443 Climbing Boston Center
02:52PM 42.9597 -73.9325 356° North 142 163 5,300 472 Climbing Boston Center
02:53PM 43.0033 -73.9306 North 140 161 5,700 446 Climbing Boston Center
02:54PM 43.0431 -73.9286 North 140 161 6,200 419 Climbing Boston Center
02:55PM 43.0847 -73.9297 359° North 143 165 6,600 378 Climbing Boston Center
02:56PM 43.1117 -73.9303 359° North 143 165 7,000 400 Climbing Boston Center
02:57PM 43.1639 -73.9317 359° North 143 165 7,400 397 Climbing Boston Center
02:58PM 43.1992 -73.9325 359° North 143 165 7,800 300 Climbing Boston Center
02:59PM 43.2450 -73.9394 354° North 143 165 8,000 100 Climbing Boston Center
03:00PM 43.2778 -73.9772 320° Northwest 152 175 8,000  Level Boston Center
03:01PM 43.3189 -74.0211 322° Northwest 172 198 8,000  Level Boston Center
03:02PM 43.3561 -74.0533 328° Northwest 177 204 8,000  Level Boston Center
03:03PM 43.3867 -74.0914 318° Northwest 172 198 8,000  Level Boston Center
03:04PM 43.4300 -74.1325 325° Northwest 167 192 8,000  Level Boston Center
03:05PM 43.4647 -74.1678 324° Northwest 162 186 8,000  Level Boston Center
03:06PM 43.4997 -74.2033 324° Northwest 157 181 8,000  Level Boston Center
03:07PM 43.5344 -74.2414 322° Northwest 157 181 8,000 50 Level Boston Center
03:08PM 43.5694 -74.2742 326° Northwest 157 181 8,100  Climbing Boston Center
03:09PM 43.6042 -74.3094 324° Northwest 157 181 8,000 -50 Descending Boston Center
03:10PM 43.6369 -74.3450 322° Northwest 157 181 8,000  Level Boston Center
03:12PM 43.6719 -74.3806 324° Northwest 157 181 8,000  Level Boston Center
03:13PM 43.7128 -74.4219 324° Northwest 157 181 8,000  Level Boston Center
03:14PM 43.7558 -74.4667 323° Northwest 162 186 8,000  Level Boston Center
03:15PM 43.7906 -74.5050 321° Northwest 157 181 8,000  Level Boston Center
03:16PM 43.8356 -74.5500 324° Northwest 157 181 8,000  Level Boston Center
03:17PM 43.8683 -74.5883 320° Northwest 162 186 8,000  Level Boston Center
03:18PM 43.9050 -74.6244 325° Northwest 162 186 8,000 50 Level Boston Center
03:19PM 43.9439 -74.6633 324° Northwest 162 186 8,100  Climbing Boston Center
03:20PM 43.9786 -74.7019 321° Northwest 162 186 8,000 -50 Descending Boston Center
03:21PM 44.0072 -74.7319 323° Northwest 162 186 8,000  Level Boston Center
03:22PM 44.0500 -74.7800 321° Northwest 162 186 8,000 45 Level Boston Center
03:23PM 44.0950 -74.8222 326° Northwest 162 186 8,100  Climbing Boston Center
03:24PM 44.1317 -74.8642 321° Northwest 162 186 8,000 -250 Descending Boston Center
03:25PM 44.1703 -74.9061 322° Northwest 162 186 7,600 -450 Descending Boston Center
03:26PM 44.2089 -74.9542 318° Northwest 167 192 7,100 -500 Descending Boston Center
03:27PM 44.2539 -74.9967 326° Northwest 181 208 6,600 -600 Descending Boston Center
03:28PM 44.2922 -75.0419 320° Northwest 186 214 5,900 -600 Descending Boston Center
03:29PM 44.3372 -75.0872 324° Northwest 186 214 5,400 -650 Descending Boston Center
03:30PM 44.3800 -75.1269 326° Northwest 186 214 4,600 -800 Descending Boston Center

Login

Don't have an account? Register now (free) for customized features, flight alerts, and more!